Decoded TAF's for Namibia

 
Print Page
 
 

Grootfontein - Namibia, FYGF

ADDS - TAFS form results

Aviation Digital Data Service (ADDS)

Output produced by TAFs form (1212 UTC 21 September 2017)
found at http://aviationweather.gov/adds/tafs/
 
Forecast for: FYGF (GROOTFONTEIN , NA)
Text: TAF FYGF 211100Z 2112/2121 36010KT CAVOK
Forecast period: 1200 to 2100 UTC 21 September 2017
Forecast type: FROM: standard forecast or significant change
Winds: from the N (360 degrees) at 12 MPH (10 knots; 5.2 m/s)
Visibility: 6 or more miles (10+ km)
Clouds: not forecast
Weather: NSW  (no significant weather)

Array
Henties Bay - Namibia, FYGN

ADDS - TAFS form results

Aviation Digital Data Service (ADDS)

Output produced by TAFs form (1212 UTC 21 September 2017)
found at http://aviationweather.gov/adds/tafs/
 
You entered "FYGN"

Sorry, either there are no data available for your request or you did not enter any valid ICAO airport abbreviations.

See stations.txt for a list of known METAR and TAF locations. Then go back to the ADDS METARs or TAFs page and try again
 
Please try again and, if problems persist, then send mail to ncep.awc.adds@noaa.gov
Array
Keetmanshoop - Namibia, FYKT

ADDS - TAFS form results

Aviation Digital Data Service (ADDS)

Output produced by TAFs form (1212 UTC 21 September 2017)
found at http://aviationweather.gov/adds/tafs/
 
Forecast for: FYKT (KEETMANSHOOP , NA)
Text: TAF FYKT 211000Z 2112/2218 01024KT CAVOK
Forecast period: 1200 to 1300 UTC 21 September 2017
Forecast type: FROM: standard forecast or significant change
Winds: from the N (10 degrees) at 28 MPH (24 knots; 12.5 m/s)
Visibility: 6 or more miles (10+ km)
Clouds: not forecast
Weather: NSW  (no significant weather)
Text: BECMG 2113/2115 32012KT
Forecast period: 1300 to 1600 UTC 21 September 2017
Forecast type: BECOMING: Conditions expected to become as follows by 1500 UTC 21 September 2017
Winds: from the NW (320 degrees) at 14 MPH (12 knots; 6.2 m/s)
Visibility: 6 or more miles (10+ km)
Weather: NSW  (no significant weather)
Text: BECMG 2116/2118 22013KT
Forecast period: 1600 UTC 21 September 2017 to 0000 UTC 22 September 2017
Forecast type: BECOMING: Conditions expected to become as follows by 1800 UTC 21 September 2017
Winds: from the SW (220 degrees) at 15 MPH (13 knots; 6.8 m/s)
Visibility: 6 or more miles (10+ km)
Weather: NSW  (no significant weather)
Text: BECMG 2200/2202 22003KT
Forecast period: 0000 to 1800 UTC 22 September 2017
Forecast type: BECOMING: Conditions expected to become as follows by 0200 UTC 22 September 2017
Winds: from the SW (220 degrees) at 3 MPH (3 knots; 1.6 m/s)
Visibility: 6 or more miles (10+ km)
Weather: NSW  (no significant weather)

Array
Katima Mulilo - Namibia, FYKM

ADDS - TAFS form results

Aviation Digital Data Service (ADDS)

Output produced by TAFs form (1212 UTC 21 September 2017)
found at http://aviationweather.gov/adds/tafs/
 
You entered "FYKM"

Sorry, either there are no data available for your request or you did not enter any valid ICAO airport abbreviations.

See stations.txt for a list of known METAR and TAF locations. Then go back to the ADDS METARs or TAFs page and try again
 
Please try again and, if problems persist, then send mail to ncep.awc.adds@noaa.gov
Array
Luderitz - Namibia, FYLZ

ADDS - TAFS form results

Aviation Digital Data Service (ADDS)

Output produced by TAFs form (1212 UTC 21 September 2017)
found at http://aviationweather.gov/adds/tafs/
 
Forecast for: FYLZ (LUDERITZ/DIAZ PO, NA)
Text: TAF FYLZ 211100Z 2112/2121 19007KT CAVOK
Forecast period: 1200 to 2100 UTC 21 September 2017
Forecast type: FROM: standard forecast or significant change
Winds: from the S (190 degrees) at 8 MPH (7 knots; 3.6 m/s)
Visibility: 6 or more miles (10+ km)
Clouds: not forecast
Weather: NSW  (no significant weather)

Array
Ondangwa - Namibia, FYOA

ADDS - TAFS form results

Aviation Digital Data Service (ADDS)

Output produced by TAFs form (1212 UTC 21 September 2017)
found at http://aviationweather.gov/adds/tafs/
 
Forecast for: FYOA (ONDANGWA , NA)
Text: TAF FYOA 211100Z 2112/2121 36010KT CAVOK
Forecast period: 1200 to 2100 UTC 21 September 2017
Forecast type: FROM: standard forecast or significant change
Winds: from the N (360 degrees) at 12 MPH (10 knots; 5.2 m/s)
Visibility: 6 or more miles (10+ km)
Clouds: not forecast
Weather: NSW  (no significant weather)

Array
Walvis Bay - Namibia, FYWB

ADDS - TAFS form results

Aviation Digital Data Service (ADDS)

Output produced by TAFs form (1212 UTC 21 September 2017)
found at http://aviationweather.gov/adds/tafs/
 
Forecast for: FYWB (WALVIS BAY , NA)
Text: TAF FYWB 211000Z 2112/2218 31003KT 9999 BKN015
Forecast period: 1200 to 1300 UTC 21 September 2017
Forecast type: FROM: standard forecast or significant change
Winds: from the NW (310 degrees) at 3 MPH (3 knots; 1.6 m/s)
Visibility: 6 or more miles (10+ km)
Ceiling: 1500 feet AGL
Clouds: broken clouds at 1500 feet AGL
Weather: no significant weather forecast for this period
Text: BECMG 2113/2115 26011KT CAVOK
Forecast period: 1300 to 1800 UTC 21 September 2017
Forecast type: BECOMING: Conditions expected to become as follows by 1500 UTC 21 September 2017
Winds: from the W (260 degrees) at 13 MPH (11 knots; 5.7 m/s)
Visibility: 6 or more miles (10+ km)
Weather: NSW  (no significant weather)
Text: BECMG 2118/2120 9999 BKN013
Forecast period: 1800 UTC 21 September 2017 to 0900 UTC 22 September 2017
Forecast type: BECOMING: Conditions expected to become as follows by 2000 UTC 21 September 2017
Winds: from the W (260 degrees) at 13 MPH (11 knots; 5.7 m/s)
Visibility: 6 or more miles (10+ km)
Ceiling: 1300 feet AGL
Clouds: broken clouds at 1300 feet AGL
Weather: NSW  (no significant weather)
Text: TEMPO 2122/2203 06004KT 0800 FG OVC010
Forecast period: 2200 UTC 21 September 2017 to 0300 UTC 22 September 2017
Forecast type: TEMPORARY: The following changes expected for less than half the time period
Winds: from the ENE (60 degrees) at 5 MPH (4 knots; 2.1 m/s)
Visibility: 0.50 miles (0.80 km)
Ceiling: 1000 feet AGL
Clouds: overcast cloud deck at 1000 feet AGL
Weather: FG  (fog)
Text: BECMG 2209/2211 24005KT 9999 NSW BKN015
Forecast period: 0900 to 1300 UTC 22 September 2017
Forecast type: BECOMING: Conditions expected to become as follows by 1100 UTC 22 September 2017
Winds: from the WSW (240 degrees) at 6 MPH (5 knots; 2.6 m/s)
Visibility: 6 or more miles (10+ km)
Ceiling: 1500 feet AGL
Clouds: broken clouds at 1500 feet AGL
Weather: NSW  (no significant weather)
Text: BECMG 2213/2215 CAVOK
Forecast period: 1300 to 1800 UTC 22 September 2017
Forecast type: BECOMING: Conditions expected to become as follows by 1500 UTC 22 September 2017
Winds: from the WSW (240 degrees) at 6 MPH (5 knots; 2.6 m/s)
Visibility: 6 or more miles (10+ km)
Weather: NSW  (no significant weather)

Array
Eros Airport (Windhoek) - Namibia, FYWE

ADDS - TAFS form results

Aviation Digital Data Service (ADDS)

Output produced by TAFs form (1212 UTC 21 September 2017)
found at http://aviationweather.gov/adds/tafs/
 
Forecast for: FYWE (EROS AIRPORT , NA)
Text: TAF FYWE 211100Z 2112/2121 35010KT CAVOK
Forecast period: 1200 to 2100 UTC 21 September 2017
Forecast type: FROM: standard forecast or significant change
Winds: from the N (350 degrees) at 12 MPH (10 knots; 5.2 m/s)
Visibility: 6 or more miles (10+ km)
Clouds: not forecast
Weather: NSW  (no significant weather)

Array
J.G Strydom Airport - Namibia, FYWH

ADDS - TAFS form results

Aviation Digital Data Service (ADDS)

Output produced by TAFs form (1212 UTC 21 September 2017)
found at http://aviationweather.gov/adds/tafs/
 
Forecast for: FYWH (J. G. STRIJDOM , NA)
Text: TAF FYWH 211000Z 2112/2218 03010KT CAVOK
Forecast period: 1200 to 1500 UTC 21 September 2017
Forecast type: FROM: standard forecast or significant change
Winds: from the NNE (30 degrees) at 12 MPH (10 knots; 5.2 m/s)
Visibility: 6 or more miles (10+ km)
Clouds: not forecast
Weather: NSW  (no significant weather)
Text: BECMG 2115/2117 33007KT
Forecast period: 1500 to 1900 UTC 21 September 2017
Forecast type: BECOMING: Conditions expected to become as follows by 1700 UTC 21 September 2017
Winds: from the NNW (330 degrees) at 8 MPH (7 knots; 3.6 m/s)
Visibility: 6 or more miles (10+ km)
Weather: NSW  (no significant weather)
Text: BECMG 2119/2121 27005KT
Forecast period: 1900 UTC 21 September 2017 to 0000 UTC 22 September 2017
Forecast type: BECOMING: Conditions expected to become as follows by 2100 UTC 21 September 2017
Winds: from the W (270 degrees) at 6 MPH (5 knots; 2.6 m/s)
Visibility: 6 or more miles (10+ km)
Weather: NSW  (no significant weather)
Text: BECMG 2200/2202 06003KT
Forecast period: 0000 to 1000 UTC 22 September 2017
Forecast type: BECOMING: Conditions expected to become as follows by 0200 UTC 22 September 2017
Winds: from the ENE (60 degrees) at 3 MPH (3 knots; 1.6 m/s)
Visibility: 6 or more miles (10+ km)
Weather: NSW  (no significant weather)
Text: BECMG 2210/2212 34003KT
Forecast period: 1000 to 1800 UTC 22 September 2017
Forecast type: BECOMING: Conditions expected to become as follows by 1200 UTC 22 September 2017
Winds: from the NNW (340 degrees) at 3 MPH (3 knots; 1.6 m/s)
Visibility: 6 or more miles (10+ km)
Weather: NSW  (no significant weather)

Array
Windhoek - Namibia, FYWW

ADDS - TAFS form results

Aviation Digital Data Service (ADDS)

Output produced by TAFs form (1212 UTC 21 September 2017)
found at http://aviationweather.gov/adds/tafs/
 
You entered "FYWW"

Sorry, either there are no data available for your request or you did not enter any valid ICAO airport abbreviations.

See stations.txt for a list of known METAR and TAF locations. Then go back to the ADDS METARs or TAFs page and try again
 
Please try again and, if problems persist, then send mail to ncep.awc.adds@noaa.gov
Array